RYR812 EIDW-EGPH

Flight info

Callsign RYR812
Flight time 0h 48m
Altitude 25000
Route ROTEV8E ROTEV P600 TUNSO
Aircraft B738/M-SDE3FGILRWY/SB1

Departure

Time 2026-04-21 14:35
Airport Dublin Airport (EIDW)

Arrival

Time 2026-04-21 15:23
Airport Edinburgh Airport (EGPH)
Time Latitude Longitude Altitude Speed Heading
2026-04-21 14:01 53.43011 -6.25009 210 ft 0 kts
2026-04-21 14:21 53.42995 -6.25012 215 ft 4 kts
2026-04-21 14:22 53.42969 -6.25016 210 ft 4 kts 354°
2026-04-21 14:22 53.42954 -6.25006 210 ft 3 kts 275°
2026-04-21 14:22 53.42954 -6.25025 210 ft 4 kts 275°
2026-04-21 14:22 53.42956 -6.25070 218 ft 4 kts 275°
2026-04-21 14:23 53.42958 -6.25111 214 ft 1 kts 275°
2026-04-21 14:23 53.42958 -6.25112 214 ft 1 kts 275°
2026-04-21 14:26 53.42958 -6.25115 213 ft 1 kts 275°
2026-04-21 14:26 53.42960 -6.25147 210 ft 5 kts 275°
2026-04-21 14:27 53.42964 -6.25222 210 ft 7 kts 272°
2026-04-21 14:27 53.42945 -6.25301 213 ft 6 kts 235°
2026-04-21 14:27 53.42924 -6.25324 210 ft 5 kts 193°
2026-04-21 14:27 53.42883 -6.25307 219 ft 8 kts 160°
2026-04-21 14:28 53.42828 -6.25267 213 ft 8 kts 156°
2026-04-21 14:28 53.42773 -6.25290 212 ft 10 kts 223°
2026-04-21 14:28 53.42718 -6.25382 216 ft 12 kts 225°
2026-04-21 14:28 53.42650 -6.25498 210 ft 16 kts 226°
2026-04-21 14:29 53.42566 -6.25646 216 ft 19 kts 226°
2026-04-21 14:29 53.42484 -6.25781 210 ft 14 kts 224°
2026-04-21 14:29 53.42406 -6.25914 215 ft 18 kts 225°
2026-04-21 14:29 53.42314 -6.26072 214 ft 20 kts 228°
2026-04-21 14:30 53.42265 -6.26255 210 ft 19 kts 268°
2026-04-21 14:30 53.42273 -6.26414 213 ft 12 kts 275°
2026-04-21 14:30 53.42282 -6.26572 215 ft 15 kts 275°
2026-04-21 14:30 53.42292 -6.26766 210 ft 18 kts 275°
2026-04-21 14:31 53.42304 -6.26993 210 ft 21 kts 275°
2026-04-21 14:31 53.42319 -6.27258 210 ft 24 kts 275°
2026-04-21 14:31 53.42330 -6.27457 210 ft 14 kts 275°
2026-04-21 14:31 53.42340 -6.27642 210 ft 17 kts 275°
2026-04-21 14:32 53.42353 -6.27863 218 ft 20 kts 275°
2026-04-21 14:32 53.42367 -6.28114 214 ft 23 kts 274°
2026-04-21 14:32 53.42372 -6.28239 213 ft 5 kts 275°
2026-04-21 14:32 53.42354 -6.28305 216 ft 8 kts 216°
2026-04-21 14:33 53.42320 -6.28322 210 ft 1 kts 183°
2026-04-21 14:33 53.42301 -6.28317 210 ft 4 kts 164°
2026-04-21 14:33 53.42272 -6.28284 216 ft 6 kts 133°
2026-04-21 14:33 53.42242 -6.28229 215 ft 7 kts 132°
2026-04-21 14:34 53.42205 -6.28159 215 ft 9 kts 126°
2026-04-21 14:34 53.42192 -6.28082 220 ft 3 kts 96°
2026-04-21 14:34 53.42179 -6.27850 210 ft 56 kts 95°
2026-04-21 14:34 53.42117 -6.26725 212 ft 134 kts 96°
2026-04-21 14:35 53.42003 -6.24983 814 ft 156 kts 93°
2026-04-21 14:35 53.41904 -6.23182 2066 ft 151 kts 93°
2026-04-21 14:35 53.41814 -6.21336 2896 ft 174 kts 94°
2026-04-21 14:35 53.41702 -6.19170 3252 ft 199 kts 94°
2026-04-21 14:36 53.41574 -6.16782 3972 ft 209 kts 94°
2026-04-21 14:36 53.41436 -6.14256 4550 ft 228 kts 95°
2026-04-21 14:36 53.41284 -6.11545 5446 ft 237 kts 95°
2026-04-21 14:36 53.41128 -6.08806 6615 ft 242 kts 95°
2026-04-21 14:37 53.40965 -6.05931 7643 ft 249 kts 96°
2026-04-21 14:37 53.41044 -6.03018 8752 ft 254 kts 75°
2026-04-21 14:37 53.41881 -6.00377 9221 ft 266 kts 52°
2026-04-21 14:37 53.43410 -5.98539 9368 ft 284 kts 26°
2026-04-21 14:38 53.45375 -5.97858 9381 ft 293 kts
2026-04-21 14:38 53.47415 -5.98016 9388 ft 294 kts 359°
2026-04-21 14:38 53.49454 -5.98330 9372 ft 292 kts 359°
2026-04-21 14:38 53.51463 -5.98620 9371 ft 289 kts 360°
2026-04-21 14:39 53.53482 -5.98999 9455 ft 296 kts 354°
2026-04-21 14:39 53.55509 -5.99644 10250 ft 299 kts 352°
2026-04-21 14:39 53.57549 -6.00351 11165 ft 305 kts 352°
2026-04-21 14:39 53.59722 -6.01089 11457 ft 331 kts 352°
2026-04-21 14:40 53.62012 -6.01855 11996 ft 345 kts 351°
2026-04-21 14:40 53.64386 -6.02641 12888 ft 347 kts 351°
2026-04-21 14:40 53.66765 -6.03422 13908 ft 347 kts 351°
2026-04-21 14:40 53.69160 -6.04201 14646 ft 354 kts 351°
2026-04-21 14:41 53.71605 -6.04992 15414 ft 357 kts 350°
2026-04-21 14:41 53.74042 -6.05604 16227 ft 359 kts 356°
2026-04-21 14:41 53.76557 -6.05789 16937 ft 364 kts
2026-04-21 14:41 53.79095 -6.05815 17800 ft 366 kts
2026-04-21 14:42 53.81671 -6.05826 18470 ft 372 kts
2026-04-21 14:42 53.84270 -6.05866 19199 ft 374 kts 359°
2026-04-21 14:42 53.86870 -6.05937 20075 ft 370 kts 357°
2026-04-21 14:42 53.89421 -6.06029 21097 ft 362 kts 356°
2026-04-21 14:43 53.91892 -6.06128 22080 ft 356 kts 355°
2026-04-21 14:43 53.94371 -6.06234 22916 ft 355 kts 355°
2026-04-21 14:43 53.96857 -6.06342 23341 ft 355 kts 354°
2026-04-21 14:43 53.99334 -6.06449 23412 ft 357 kts 355°
2026-04-21 14:44 54.01813 -6.06517 23417 ft 357 kts 359°
2026-04-21 14:44 54.04266 -6.05612 23453 ft 368 kts 19°
2026-04-21 14:44 54.06623 -6.03793 24009 ft 372 kts 21°
2026-04-21 14:44 54.08907 -6.01896 24734 ft 369 kts 21°
2026-04-21 14:45 54.11215 -5.99949 25190 ft 371 kts 21°
2026-04-21 14:45 54.13526 -5.98006 25415 ft 370 kts 21°
2026-04-21 14:45 54.15842 -5.96070 25414 ft 368 kts 21°
2026-04-21 14:45 54.18139 -5.94162 25413 ft 364 kts 21°
2026-04-21 14:46 54.20385 -5.92303 25420 ft 362 kts 20°
2026-04-21 14:46 54.22653 -5.90434 25430 ft 361 kts 20°
2026-04-21 14:46 54.24921 -5.88566 25435 ft 361 kts 21°
2026-04-21 14:46 54.27193 -5.86694 25441 ft 362 kts 21°
2026-04-21 14:47 54.29466 -5.84819 25436 ft 362 kts 21°
2026-04-21 14:47 54.31740 -5.82940 25443 ft 362 kts 21°
2026-04-21 14:47 54.33979 -5.81087 25446 ft 363 kts 21°
2026-04-21 14:47 54.36259 -5.79198 25450 ft 363 kts 21°
2026-04-21 14:48 54.38535 -5.77310 25452 ft 363 kts 21°
2026-04-21 14:48 54.40821 -5.75411 25454 ft 364 kts 21°
2026-04-21 14:48 54.43105 -5.73510 25450 ft 364 kts 21°
2026-04-21 14:48 54.45362 -5.71631 25452 ft 364 kts 22°
2026-04-21 14:49 54.47646 -5.69726 25455 ft 364 kts 22°
2026-04-21 14:49 54.49923 -5.67825 25448 ft 364 kts 22°
2026-04-21 14:49 54.52200 -5.65921 25451 ft 363 kts 22°
2026-04-21 14:49 54.54473 -5.64020 25450 ft 363 kts 22°
2026-04-21 14:50 54.55976 -5.62760 25452 ft 362 kts 22°
2026-04-21 14:50 54.58986 -5.60163 25449 ft 361 kts 27°
2026-04-21 14:50 54.60370 -5.58593 25449 ft 361 kts 35°
2026-04-21 14:50 54.62292 -5.55808 25458 ft 360 kts 39°
2026-04-21 14:51 54.64168 -5.52931 25463 ft 361 kts 40°
2026-04-21 14:51 54.66650 -5.49086 25295 ft 362 kts 40°
2026-04-21 14:51 54.68521 -5.46200 25058 ft 357 kts 40°
2026-04-21 14:51 54.70382 -5.43344 24727 ft 356 kts 41°
2026-04-21 14:52 54.71612 -5.41464 24514 ft 354 kts 42°
2026-04-21 14:52 54.73453 -5.38652 24176 ft 351 kts 43°
2026-04-21 14:52 54.75277 -5.35867 23804 ft 348 kts 44°
2026-04-21 14:52 54.77063 -5.33138 23432 ft 344 kts 44°
2026-04-21 14:53 54.78848 -5.30411 23094 ft 340 kts 44°
2026-04-21 14:53 54.80610 -5.27712 22755 ft 336 kts 44°
2026-04-21 14:53 54.82358 -5.25036 22401 ft 333 kts 44°
2026-04-21 14:53 54.84087 -5.22384 22050 ft 330 kts 45°
2026-04-21 14:54 54.85797 -5.19757 21711 ft 327 kts 45°
2026-04-21 14:54 54.87499 -5.17151 21370 ft 324 kts 44°
2026-04-21 14:54 54.89348 -5.14905 21055 ft 325 kts 32°
2026-04-21 14:54 54.91359 -5.13123 20737 ft 324 kts 30°
2026-04-21 14:55 54.93357 -5.11433 20408 ft 322 kts 30°
2026-04-21 14:55 54.95365 -5.09738 20079 ft 320 kts 30°
2026-04-21 14:55 54.97362 -5.08037 19750 ft 318 kts 30°
2026-04-21 14:55 54.99343 -5.06335 19428 ft 317 kts 31°
2026-04-21 14:56 55.01318 -5.04626 19099 ft 315 kts 31°
2026-04-21 14:56 55.03279 -5.02924 18775 ft 314 kts 31°
2026-04-21 14:56 55.05203 -5.01250 18399 ft 312 kts 31°
2026-04-21 14:56 55.07147 -4.99556 18062 ft 310 kts 31°
2026-04-21 14:57 55.09068 -4.97880 17732 ft 307 kts 32°
2026-04-21 14:57 55.10773 -4.95762 17420 ft 295 kts 51°
2026-04-21 14:57 55.11934 -4.92918 17266 ft 284 kts 66°
2026-04-21 14:57 55.12760 -4.89833 17095 ft 284 kts 69°
2026-04-21 14:58 55.13554 -4.86613 16913 ft 291 kts 70°
2026-04-21 14:58 55.14349 -4.83334 16730 ft 294 kts 70°
2026-04-21 14:58 55.15147 -4.80051 16530 ft 292 kts 70°
2026-04-21 14:58 55.15932 -4.76836 16348 ft 290 kts 70°
2026-04-21 14:59 55.16681 -4.73779 16175 ft 288 kts 70°
2026-04-21 14:59 55.17473 -4.70555 15997 ft 286 kts 70°
2026-04-21 14:59 55.18259 -4.67359 15816 ft 285 kts 70°
2026-04-21 14:59 55.19041 -4.64178 15628 ft 283 kts 70°
2026-04-21 15:00 55.19822 -4.61003 15450 ft 282 kts 70°
2026-04-21 15:00 55.20585 -4.57899 15294 ft 281 kts 70°
2026-04-21 15:00 55.21358 -4.54749 15113 ft 281 kts 70°
2026-04-21 15:00 55.22130 -4.51603 14942 ft 281 kts 70°
2026-04-21 15:01 55.22902 -4.48452 14771 ft 281 kts 70°
2026-04-21 15:01 55.23674 -4.45297 14593 ft 280 kts 70°
2026-04-21 15:01 55.24431 -4.42200 14421 ft 279 kts 70°
2026-04-21 15:01 55.25195 -4.39069 14239 ft 278 kts 70°
2026-04-21 15:02 55.25957 -4.35942 14046 ft 278 kts 70°
2026-04-21 15:02 55.26714 -4.32830 13859 ft 276 kts 70°
2026-04-21 15:02 55.27458 -4.29769 13687 ft 275 kts 70°
2026-04-21 15:02 55.28208 -4.26681 13507 ft 274 kts 70°
2026-04-21 15:03 55.28954 -4.23603 13342 ft 273 kts 70°
2026-04-21 15:03 55.29697 -4.20533 13160 ft 272 kts 70°
2026-04-21 15:03 55.30434 -4.17485 12994 ft 272 kts 70°
2026-04-21 15:03 55.31163 -4.14464 12818 ft 271 kts 70°
2026-04-21 15:04 55.31901 -4.11400 12649 ft 271 kts 70°
2026-04-21 15:04 55.32637 -4.08339 12488 ft 272 kts 70°
2026-04-21 15:04 55.33376 -4.05263 12308 ft 272 kts 70°
2026-04-21 15:04 55.34109 -4.02209 12152 ft 272 kts 70°
2026-04-21 15:05 55.34834 -3.99183 11974 ft 272 kts 70°
2026-04-21 15:05 55.36305 -3.93035 11637 ft 272 kts 70°
2026-04-21 15:05 55.37035 -3.89973 11466 ft 271 kts 70°
2026-04-21 15:06 55.37766 -3.86907 11294 ft 271 kts 70°
2026-04-21 15:06 55.38485 -3.83889 11124 ft 270 kts 70°
2026-04-21 15:06 55.39209 -3.80837 10965 ft 270 kts 70°
2026-04-21 15:06 55.39932 -3.77789 10791 ft 270 kts 70°
2026-04-21 15:07 55.40656 -3.74735 10627 ft 269 kts 70°
2026-04-21 15:07 55.41372 -3.71712 10460 ft 264 kts 70°
2026-04-21 15:07 55.42070 -3.68760 10258 ft 258 kts 71°
2026-04-21 15:07 55.42742 -3.65914 10107 ft 252 kts 71°
2026-04-21 15:08 55.43412 -3.63073 9933 ft 250 kts 71°
2026-04-21 15:08 55.44079 -3.60237 9799 ft 251 kts 71°
2026-04-21 15:08 55.44747 -3.57390 9619 ft 252 kts 70°
2026-04-21 15:08 55.45415 -3.54541 9461 ft 252 kts 71°
2026-04-21 15:09 55.46091 -3.51660 9313 ft 254 kts 70°
2026-04-21 15:09 55.46755 -3.48825 9140 ft 251 kts 70°
2026-04-21 15:09 55.47417 -3.46002 8983 ft 246 kts 70°
2026-04-21 15:09 55.48059 -3.43255 8823 ft 239 kts 70°
2026-04-21 15:10 55.48944 -3.40809 8661 ft 238 kts 47°
2026-04-21 15:10 55.50351 -3.39378 8525 ft 239 kts 21°
2026-04-21 15:10 55.52016 -3.39285 8378 ft 244 kts 350°
2026-04-21 15:10 55.53546 -3.40607 8229 ft 246 kts 327°
2026-04-21 15:11 55.54857 -3.42488 8103 ft 245 kts 322°
2026-04-21 15:11 55.56137 -3.44476 7930 ft 244 kts 322°
2026-04-21 15:11 55.57410 -3.46458 7776 ft 243 kts 322°
2026-04-21 15:11 55.58683 -3.48415 7626 ft 242 kts 322°
2026-04-21 15:12 55.59967 -3.50369 7475 ft 244 kts 322°
2026-04-21 15:12 55.61249 -3.52311 7329 ft 246 kts 323°
2026-04-21 15:12 55.62558 -3.54293 7178 ft 248 kts 323°
2026-04-21 15:12 55.63879 -3.56290 6889 ft 254 kts 323°
2026-04-21 15:13 55.65246 -3.58282 6410 ft 262 kts 324°
2026-04-21 15:13 55.66653 -3.60310 6166 ft 259 kts 324°
2026-04-21 15:13 55.68037 -3.62301 5985 ft 254 kts 324°
2026-04-21 15:13 55.69383 -3.64258 5849 ft 245 kts 323°
2026-04-21 15:14 55.70620 -3.66195 5689 ft 235 kts 322°
2026-04-21 15:14 55.71810 -3.68094 5535 ft 223 kts 322°
2026-04-21 15:14 55.72937 -3.69890 5378 ft 213 kts 322°
2026-04-21 15:14 55.74020 -3.71611 5230 ft 204 kts 323°
2026-04-21 15:15 55.75042 -3.73233 5091 ft 196 kts 323°
2026-04-21 15:15 55.76107 -3.74659 5005 ft 189 kts 333°
2026-04-21 15:15 55.77202 -3.76001 4876 ft 192 kts 327°
2026-04-21 15:15 55.78224 -3.77521 4755 ft 191 kts 325°
2026-04-21 15:16 55.79364 -3.78524 4608 ft 177 kts
2026-04-21 15:16 55.80408 -3.77907 4534 ft 152 kts 53°
2026-04-21 15:16 55.81096 -3.76476 4473 ft 157 kts 52°
2026-04-21 15:16 55.81819 -3.75022 4376 ft 159 kts 56°
2026-04-21 15:17 55.82523 -3.73485 4262 ft 159 kts 56°
2026-04-21 15:17 55.83198 -3.71935 4138 ft 157 kts 58°
2026-04-21 15:17 55.83799 -3.70367 4013 ft 154 kts 61°
2026-04-21 15:17 55.84369 -3.68765 4013 ft 151 kts 61°
2026-04-21 15:18 55.84923 -3.67145 3882 ft 156 kts 62°
2026-04-21 15:18 55.85480 -3.65494 3684 ft 156 kts 63°
2026-04-21 15:18 55.86036 -3.63858 3473 ft 153 kts 62°
2026-04-21 15:18 55.86575 -3.62256 3260 ft 150 kts 63°
2026-04-21 15:19 55.87108 -3.60659 3064 ft 151 kts 63°
2026-04-21 15:19 55.87652 -3.59069 2875 ft 150 kts 60°
2026-04-21 15:19 55.88191 -3.57456 2607 ft 151 kts 62°
2026-04-21 15:19 55.88701 -3.55928 2427 ft 139 kts 62°
2026-04-21 15:20 55.89171 -3.54537 2272 ft 124 kts 62°
2026-04-21 15:20 55.89594 -3.53274 2102 ft 115 kts 62°
2026-04-21 15:20 55.90010 -3.52031 1930 ft 116 kts 62°
2026-04-21 15:20 55.90417 -3.50821 1765 ft 113 kts 62°
2026-04-21 15:21 55.90815 -3.49643 1611 ft 111 kts 62°
2026-04-21 15:21 55.91227 -3.48428 1452 ft 120 kts 62°
2026-04-21 15:21 55.91658 -3.47141 1276 ft 122 kts 61°
2026-04-21 15:21 55.92093 -3.45849 1098 ft 118 kts 62°
2026-04-21 15:22 55.92494 -3.44664 928 ft 110 kts 62°
2026-04-21 15:22 55.92878 -3.43520 811 ft 110 kts 60°
2026-04-21 15:22 55.93289 -3.42306 648 ft 118 kts 62°
2026-04-21 15:22 55.93709 -3.41062 477 ft 114 kts 60°
2026-04-21 15:23 55.94119 -3.39849 292 ft 113 kts 60°
2026-04-21 15:23 55.94513 -3.38688 152 ft 109 kts 60°
2026-04-21 15:23 55.94873 -3.37621 112 ft 83 kts 59°
2026-04-21 15:23 55.95088 -3.36991 113 ft 34 kts 58°
2026-04-21 15:24 55.95186 -3.36699 111 ft 13 kts 59°
2026-04-21 15:24 55.95232 -3.36562 110 ft 11 kts 59°
2026-04-21 15:24 55.95254 -3.36432 110 ft 10 kts 116°
2026-04-21 15:24 55.95215 -3.36375 113 ft 4 kts 147°
2026-04-21 15:25 55.95190 -3.36347 114 ft 5 kts 148°
2026-04-21 15:25 55.95156 -3.36307 114 ft 7 kts 139°
2026-04-21 15:25 55.95134 -3.36223 114 ft 9 kts 109°
2026-04-21 15:25 55.95114 -3.36116 115 ft 8 kts 108°
2026-04-21 15:26 55.95106 -3.36067 115 ft 4 kts 107°
2026-04-21 15:26 55.95102 -3.36044 115 ft 0 kts 107°
2026-04-21 15:26 55.95101 -3.36038 115 ft 1 kts 109°
2026-04-21 15:26 55.95097 -3.36021 112 ft 2 kts 110°
2026-04-21 15:27 55.95089 -3.35980 114 ft 4 kts 110°
2026-04-21 15:27 55.95071 -3.35921 113 ft 6 kts 119°
2026-04-21 15:27 55.95047 -3.35845 113 ft 7 kts 125°
2026-04-21 15:27 55.95011 -3.35835 116 ft 5 kts 201°
2026-04-21 15:28 55.94971 -3.35860 114 ft 7 kts 189°
2026-04-21 15:28 55.94930 -3.35833 114 ft 6 kts 137°
2026-04-21 15:28 55.94909 -3.35784 116 ft 3 kts 122°
2026-04-21 15:28 55.94899 -3.35751 114 ft 4 kts 120°
2026-04-21 15:29 55.94888 -3.35718 115 ft 1 kts 120°
2026-04-21 15:29 55.94885 -3.35709 115 ft 1 kts 120°
2026-04-21 15:29 55.94877 -3.35686 112 ft 3 kts 120°
2026-04-21 15:29 55.94866 -3.35651 116 ft 3 kts 118°
2026-04-21 15:30 55.94854 -3.35635 112 ft 0 kts 168°
2026-04-21 15:30 55.94853 -3.35636 115 ft 0 kts 181°
2026-04-21 15:30 55.94837 -3.35645 116 ft 4 kts 202°
2026-04-21 15:30 55.94813 -3.35668 116 ft 0 kts 208°
2026-04-21 15:31 55.94810 -3.35671 112 ft 1 kts 208°
2026-04-21 15:31 55.94801 -3.35680 114 ft 1 kts 208°
2026-04-21 15:31 55.94800 -3.35681 114 ft 0 kts 208°